Time,TemperatureF,DewpointF,PressureIn,WindDirection,WindDirectionDegrees,WindSpeedMPH,WindSpeedGustMPH,Humidity,HourlyPrecipIn,Conditions,Clouds,dailyrainin,SoftwareType,DateUTC
2013-08-02 00:00:00,68.3,66.2,29.98,SSE,158,0.0,1.0,93,0.00,,,0.00,WeatherCatV1.20B785,2013-08-02 05:00:00,
2013-08-02 00:05:00,68.3,66.2,29.98,SSE,158,0.0,1.0,93,0.00,,,0.00,WeatherCatV1.20B785,2013-08-02 05:05:00,
2013-08-02 00:10:00,67.7,65.9,30.00,SSE,158,0.0,0.0,94,0.00,,,0.00,WeatherCatV1.20B785,2013-08-02 05:10:00,
2013-08-02 00:15:00,67.7,65.9,30.00,SSE,158,0.0,0.0,94,0.00,,,0.00,WeatherCatV1.20B785,2013-08-02 05:15:00,
2013-08-02 00:20:00,67.7,65.9,30.00,SSE,158,0.0,0.0,94,0.00,,,0.00,WeatherCatV1.20B785,2013-08-02 05:20:00,
2013-08-02 00:25:00,67.7,65.9,30.00,SSE,158,0.0,0.0,94,0.00,,,0.00,WeatherCatV1.20B785,2013-08-02 05:25:00,
2013-08-02 00:30:00,67.7,65.9,30.00,SSE,158,0.0,0.0,94,0.00,,,0.00,WeatherCatV1.20B785,2013-08-02 05:30:00,
2013-08-02 00:35:00,67.7,65.9,30.00,SSE,158,0.0,0.0,94,0.00,,,0.00,WeatherCatV1.20B785,2013-08-02 05:35:00,
2013-08-02 00:40:00,67.2,65.4,29.98,SSE,158,0.0,1.0,94,0.00,,,0.00,WeatherCatV1.20B785,2013-08-02 05:40:00,
2013-08-02 00:45:00,67.2,65.4,29.98,SSE,158,0.0,1.0,94,0.00,,,0.00,WeatherCatV1.20B785,2013-08-02 05:45:00,
2013-08-02 00:50:00,67.2,65.4,29.98,SSE,158,0.0,1.0,94,0.00,,,0.00,WeatherCatV1.20B785,2013-08-02 05:50:00,
2013-08-02 00:55:00,67.2,65.4,29.98,SSE,158,0.0,1.0,94,0.00,,,0.00,WeatherCatV1.20B785,2013-08-02 05:55:00,
2013-08-02 01:00:00,67.2,65.4,29.98,SSE,158,0.0,1.0,94,0.00,,,0.00,WeatherCatV1.20B785,2013-08-02 06:00:00,
2013-08-02 01:05:00,67.2,65.4,29.98,SSE,158,0.0,1.0,94,0.00,,,0.00,WeatherCatV1.20B785,2013-08-02 06:05:00,
2013-08-02 01:10:00,66.7,65.2,29.98,SSE,158,0.0,0.0,95,0.00,,,0.00,WeatherCatV1.20B785,2013-08-02 06:10:00,
2013-08-02 01:15:00,66.7,65.2,29.98,SSE,158,0.0,0.0,95,0.00,,,0.00,WeatherCatV1.20B785,2013-08-02 06:15:00,
2013-08-02 01:20:00,66.7,65.2,29.98,SSE,158,0.0,0.0,95,0.00,,,0.00,WeatherCatV1.20B785,2013-08-02 06:20:00,
2013-08-02 01:25:00,66.7,65.2,29.98,SSE,158,0.0,0.0,95,0.00,,,0.00,WeatherCatV1.20B785,2013-08-02 06:25:00,
2013-08-02 01:30:00,66.7,65.2,29.98,SSE,158,0.0,0.0,95,0.00,,,0.00,WeatherCatV1.20B785,2013-08-02 06:30:00,
2013-08-02 01:35:00,66.7,65.2,29.98,SSE,158,0.0,0.0,95,0.00,,,0.00,WeatherCatV1.20B785,2013-08-02 06:35:00,
2013-08-02 01:40:00,66.5,65.3,29.97,SSE,158,0.0,2.0,96,0.00,,,0.00,WeatherCatV1.20B785,2013-08-02 06:40:00,
2013-08-02 01:45:00,66.5,65.3,29.97,SSE,158,0.0,2.0,96,0.00,,,0.00,WeatherCatV1.20B785,2013-08-02 06:45:00,
2013-08-02 01:50:00,66.5,65.3,29.97,SSE,158,0.0,2.0,96,0.00,,,0.00,WeatherCatV1.20B785,2013-08-02 06:50:00,
2013-08-02 01:55:00,66.5,65.3,29.97,SSE,158,0.0,2.0,96,0.00,,,0.00,WeatherCatV1.20B785,2013-08-02 06:55:00,
2013-08-02 02:00:00,66.5,65.3,29.97,SSE,158,0.0,2.0,96,0.00,,,0.00,WeatherCatV1.20B785,2013-08-02 07:00:00,
2013-08-02 02:05:00,66.5,65.3,29.97,SSE,158,0.0,2.0,96,0.00,,,0.00,WeatherCatV1.20B785,2013-08-02 07:05:00,
2013-08-02 02:10:00,66.6,65.4,29.96,SE,135,0.0,1.0,96,0.00,,,0.00,WeatherCatV1.20B785,2013-08-02 07:10:00,
2013-08-02 02:15:00,66.6,65.4,29.96,SE,135,0.0,1.0,96,0.00,,,0.00,WeatherCatV1.20B785,2013-08-02 07:15:00,
2013-08-02 02:20:00,66.6,65.4,29.96,SE,135,0.0,1.0,96,0.00,,,0.00,WeatherCatV1.20B785,2013-08-02 07:20:00,
2013-08-02 02:25:00,66.6,65.4,29.96,SE,135,0.0,1.0,96,0.00,,,0.00,WeatherCatV1.20B785,2013-08-02 07:25:00,
2013-08-02 02:30:00,66.6,65.4,29.96,SE,135,0.0,1.0,96,0.00,,,0.00,WeatherCatV1.20B785,2013-08-02 07:30:00,
2013-08-02 02:35:00,66.6,65.4,29.96,SE,135,0.0,1.0,96,0.00,,,0.00,WeatherCatV1.20B785,2013-08-02 07:35:00,
2013-08-02 02:40:00,66.6,65.4,29.96,SE,135,0.0,1.0,96,0.00,,,0.00,WeatherCatV1.20B785,2013-08-02 07:40:00,
2013-08-02 02:45:00,67.0,65.8,29.95,SE,135,0.0,2.0,96,0.00,,,0.00,WeatherCatV1.20B785,2013-08-02 07:45:00,
2013-08-02 02:50:00,67.0,65.8,29.95,SE,135,0.0,2.0,96,0.00,,,0.00,WeatherCatV1.20B785,2013-08-02 07:50:00,
2013-08-02 02:55:00,67.0,65.8,29.95,SE,135,0.0,2.0,96,0.00,,,0.00,WeatherCatV1.20B785,2013-08-02 07:55:00,
2013-08-02 03:00:00,67.0,65.8,29.95,SE,135,0.0,2.0,96,0.00,,,0.00,WeatherCatV1.20B785,2013-08-02 08:00:00,
2013-08-02 03:05:00,67.0,65.8,29.95,SE,135,0.0,2.0,96,0.00,,,0.00,WeatherCatV1.20B785,2013-08-02 08:05:00,
2013-08-02 03:10:00,67.0,65.8,29.95,SE,135,0.0,2.0,96,0.00,,,0.00,WeatherCatV1.20B785,2013-08-02 08:10:00,
2013-08-02 03:15:00,67.6,66.4,29.96,SSE,158,0.0,3.0,96,0.00,,,0.00,WeatherCatV1.20B785,2013-08-02 08:15:00,
2013-08-02 03:20:00,67.6,66.4,29.96,SSE,158,0.0,3.0,96,0.00,,,0.00,WeatherCatV1.20B785,2013-08-02 08:20:00,
2013-08-02 03:25:00,67.6,66.4,29.96,SSE,158,0.0,3.0,96,0.00,,,0.00,WeatherCatV1.20B785,2013-08-02 08:25:00,
2013-08-02 03:30:00,67.6,66.4,29.96,SSE,158,0.0,3.0,96,0.00,,,0.00,WeatherCatV1.20B785,2013-08-02 08:30:00,
2013-08-02 03:35:00,67.6,66.4,29.96,SSE,158,0.0,3.0,96,0.00,,,0.00,WeatherCatV1.20B785,2013-08-02 08:35:00,
2013-08-02 03:40:00,68.1,66.6,29.95,SE,135,0.0,3.0,95,0.00,,,0.00,WeatherCatV1.20B785,2013-08-02 08:40:00,
2013-08-02 03:45:00,68.1,66.6,29.95,SE,135,0.0,3.0,95,0.00,,,0.00,WeatherCatV1.20B785,2013-08-02 08:45:00,
2013-08-02 03:50:00,68.1,66.6,29.95,SE,135,0.0,3.0,95,0.00,,,0.00,WeatherCatV1.20B785,2013-08-02 08:50:00,
2013-08-02 03:55:00,68.1,66.6,29.95,SE,135,0.0,3.0,95,0.00,,,0.00,WeatherCatV1.20B785,2013-08-02 08:55:00,
2013-08-02 04:00:00,68.1,66.6,29.95,SE,135,0.0,3.0,95,0.00,,,0.00,WeatherCatV1.20B785,2013-08-02 09:00:00,
2013-08-02 04:05:00,68.1,66.6,29.95,SE,135,0.0,3.0,95,0.00,,,0.00,WeatherCatV1.20B785,2013-08-02 09:05:00,
2013-08-02 04:10:00,68.2,66.4,29.96,SE,135,0.0,4.0,94,0.00,,,0.00,WeatherCatV1.20B785,2013-08-02 09:10:00,
2013-08-02 04:15:00,68.2,66.4,29.96,SE,135,0.0,4.0,94,0.00,,,0.00,WeatherCatV1.20B785,2013-08-02 09:15:00,
2013-08-02 04:20:00,68.2,66.4,29.96,SE,135,0.0,4.0,94,0.00,,,0.00,WeatherCatV1.20B785,2013-08-02 09:20:00,
2013-08-02 04:25:00,68.2,66.4,29.96,SE,135,0.0,4.0,94,0.00,,,0.00,WeatherCatV1.20B785,2013-08-02 09:25:00,
2013-08-02 04:30:00,68.2,66.4,29.96,SE,135,0.0,4.0,94,0.00,,,0.00,WeatherCatV1.20B785,2013-08-02 09:30:00,
2013-08-02 04:35:00,68.2,66.4,29.96,SE,135,0.0,4.0,94,0.00,,,0.00,WeatherCatV1.20B785,2013-08-02 09:35:00,
2013-08-02 04:40:00,68.5,66.7,29.95,SE,135,1.0,5.0,94,0.00,,,0.00,WeatherCatV1.20B785,2013-08-02 09:40:00,
2013-08-02 04:45:00,68.5,66.7,29.95,SE,135,1.0,5.0,94,0.00,,,0.00,WeatherCatV1.20B785,2013-08-02 09:45:00,
2013-08-02 04:50:00,68.5,66.7,29.95,SE,135,1.0,5.0,94,0.00,,,0.00,WeatherCatV1.20B785,2013-08-02 09:50:00,
2013-08-02 04:55:00,68.5,66.7,29.95,SE,135,1.0,5.0,94,0.00,,,0.00,WeatherCatV1.20B785,2013-08-02 09:55:00,
2013-08-02 05:00:00,68.5,66.7,29.95,SE,135,1.0,5.0,94,0.00,,,0.00,WeatherCatV1.20B785,2013-08-02 10:00:00,
2013-08-02 05:05:00,68.5,66.7,29.95,SE,135,1.0,5.0,94,0.00,,,0.00,WeatherCatV1.20B785,2013-08-02 10:05:00,
2013-08-02 05:10:00,69.1,67.3,29.95,SSE,158,1.0,5.0,94,0.00,,,0.00,WeatherCatV1.20B785,2013-08-02 10:10:00,
2013-08-02 05:15:00,69.1,67.3,29.95,SSE,158,1.0,5.0,94,0.00,,,0.00,WeatherCatV1.20B785,2013-08-02 10:15:00,
2013-08-02 05:20:00,69.1,67.3,29.95,SSE,158,1.0,5.0,94,0.00,,,0.00,WeatherCatV1.20B785,2013-08-02 10:20:00,
2013-08-02 05:25:00,69.1,67.3,29.95,SSE,158,1.0,5.0,94,0.00,,,0.00,WeatherCatV1.20B785,2013-08-02 10:25:00,
2013-08-02 05:30:00,69.1,67.3,29.95,SSE,158,1.0,5.0,94,0.00,,,0.00,WeatherCatV1.20B785,2013-08-02 10:30:00,
2013-08-02 05:35:00,69.1,67.3,29.95,SSE,158,1.0,5.0,94,0.00,,,0.00,WeatherCatV1.20B785,2013-08-02 10:35:00,
2013-08-02 05:40:00,69.4,67.6,29.95,SSE,158,1.0,5.0,94,0.00,,,0.00,WeatherCatV1.20B785,2013-08-02 10:40:00,
2013-08-02 05:45:00,69.4,67.6,29.95,SSE,158,1.0,5.0,94,0.00,,,0.00,WeatherCatV1.20B785,2013-08-02 10:45:00,
2013-08-02 05:50:00,69.4,67.6,29.95,SSE,158,1.0,5.0,94,0.00,,,0.00,WeatherCatV1.20B785,2013-08-02 10:50:00,
2013-08-02 05:55:00,69.4,67.6,29.95,SSE,158,1.0,5.0,94,0.00,,,0.00,WeatherCatV1.20B785,2013-08-02 10:55:00,
2013-08-02 06:00:00,69.4,67.6,29.95,SSE,158,1.0,5.0,94,0.00,,,0.00,WeatherCatV1.20B785,2013-08-02 11:00:00,
2013-08-02 06:05:00,69.4,67.6,29.95,SSE,158,1.0,5.0,94,0.00,,,0.00,WeatherCatV1.20B785,2013-08-02 11:05:00,
2013-08-02 06:10:00,69.4,67.6,29.95,SSE,158,0.0,3.0,94,0.00,,,0.00,WeatherCatV1.20B785,2013-08-02 11:10:00,
2013-08-02 06:15:00,69.4,67.6,29.95,SSE,158,0.0,3.0,94,0.00,,,0.00,WeatherCatV1.20B785,2013-08-02 11:15:00,
2013-08-02 06:20:00,69.4,67.6,29.95,SSE,158,0.0,3.0,94,0.00,,,0.00,WeatherCatV1.20B785,2013-08-02 11:20:00,
2013-08-02 06:25:00,69.4,67.6,29.95,SSE,158,0.0,3.0,94,0.00,,,0.00,WeatherCatV1.20B785,2013-08-02 11:25:00,
2013-08-02 06:30:00,69.4,67.6,29.95,SSE,158,0.0,3.0,94,0.00,,,0.00,WeatherCatV1.20B785,2013-08-02 11:30:00,
2013-08-02 06:35:00,69.4,67.6,29.95,SSE,158,0.0,3.0,94,0.00,,,0.00,WeatherCatV1.20B785,2013-08-02 11:35:00,
2013-08-02 06:40:00,69.5,67.7,29.96,SSE,158,1.0,5.0,94,0.00,,,0.00,WeatherCatV1.20B785,2013-08-02 11:40:00,
2013-08-02 06:45:00,69.5,67.7,29.96,SSE,158,1.0,5.0,94,0.00,,,0.00,WeatherCatV1.20B785,2013-08-02 11:45:00,
2013-08-02 06:50:00,69.5,67.7,29.96,SSE,158,1.0,5.0,94,0.00,,,0.00,WeatherCatV1.20B785,2013-08-02 11:50:00,
2013-08-02 06:55:00,69.5,67.7,29.96,SSE,158,1.0,5.0,94,0.00,,,0.00,WeatherCatV1.20B785,2013-08-02 11:55:00,
2013-08-02 07:00:00,69.5,67.7,29.96,SSE,158,1.0,5.0,94,0.00,,,0.00,WeatherCatV1.20B785,2013-08-02 12:00:00,
2013-08-02 07:05:00,69.5,67.7,29.96,SSE,158,1.0,5.0,94,0.00,,,0.00,WeatherCatV1.20B785,2013-08-02 12:05:00,
2013-08-02 07:10:00,69.6,67.5,29.97,SSE,158,0.0,3.0,93,0.00,,,0.00,WeatherCatV1.20B785,2013-08-02 12:10:00,
2013-08-02 07:15:00,69.6,67.5,29.97,SSE,158,0.0,3.0,93,0.00,,,0.00,WeatherCatV1.20B785,2013-08-02 12:15:00,
2013-08-02 07:20:00,69.6,67.5,29.97,SSE,158,0.0,3.0,93,0.00,,,0.00,WeatherCatV1.20B785,2013-08-02 12:20:00,
2013-08-02 07:25:00,69.6,67.5,29.97,SSE,158,0.0,3.0,93,0.00,,,0.00,WeatherCatV1.20B785,2013-08-02 12:25:00,
2013-08-02 07:30:00,69.6,67.5,29.97,SSE,158,0.0,3.0,93,0.00,,,0.00,WeatherCatV1.20B785,2013-08-02 12:30:00,
2013-08-02 07:35:00,69.6,67.5,29.97,SSE,158,0.0,3.0,93,0.00,,,0.00,WeatherCatV1.20B785,2013-08-02 12:35:00,
2013-08-02 07:40:00,69.7,67.3,29.96,SE,135,1.0,4.0,92,0.00,,,0.00,WeatherCatV1.20B785,2013-08-02 12:40:00,
2013-08-02 07:45:00,69.7,67.3,29.96,SE,135,1.0,4.0,92,0.00,,,0.00,WeatherCatV1.20B785,2013-08-02 12:45:00,
2013-08-02 07:50:00,69.7,67.3,29.96,SE,135,1.0,4.0,92,0.00,,,0.00,WeatherCatV1.20B785,2013-08-02 12:50:00,
2013-08-02 07:55:00,69.7,67.3,29.96,SE,135,1.0,4.0,92,0.00,,,0.00,WeatherCatV1.20B785,2013-08-02 12:55:00,
2013-08-02 08:00:00,69.7,67.3,29.96,SE,135,1.0,4.0,92,0.00,,,0.00,WeatherCatV1.20B785,2013-08-02 13:00:00,
2013-08-02 08:05:00,69.7,67.3,29.96,SE,135,1.0,4.0,92,0.00,,,0.00,WeatherCatV1.20B785,2013-08-02 13:05:00,
2013-08-02 08:10:00,69.9,67.2,29.96,SSE,158,1.0,4.0,91,0.00,,,0.00,WeatherCatV1.20B785,2013-08-02 13:10:00,
2013-08-02 08:15:00,69.9,67.2,29.96,SSE,158,1.0,4.0,91,0.00,,,0.00,WeatherCatV1.20B785,2013-08-02 13:15:00,
2013-08-02 08:20:00,69.9,67.2,29.96,SSE,158,1.0,4.0,91,0.00,,,0.00,WeatherCatV1.20B785,2013-08-02 13:20:00,
2013-08-02 08:25:00,69.9,67.2,29.96,SSE,158,1.0,4.0,91,0.00,,,0.00,WeatherCatV1.20B785,2013-08-02 13:25:00,
2013-08-02 08:30:00,69.9,67.2,29.96,SSE,158,1.0,4.0,91,0.00,,,0.00,WeatherCatV1.20B785,2013-08-02 13:30:00,
2013-08-02 08:35:00,69.9,67.2,29.96,SSE,158,1.0,4.0,91,0.00,,,0.00,WeatherCatV1.20B785,2013-08-02 13:35:00,
2013-08-02 08:40:00,70.0,67.2,29.97,SSE,158,1.0,5.0,91,0.00,,,0.00,WeatherCatV1.20B785,2013-08-02 13:40:00,
2013-08-02 08:45:00,70.0,67.2,29.97,SSE,158,1.0,5.0,91,0.00,,,0.00,WeatherCatV1.20B785,2013-08-02 13:45:00,
2013-08-02 08:50:00,70.0,67.2,29.97,SSE,158,1.0,5.0,91,0.00,,,0.00,WeatherCatV1.20B785,2013-08-02 13:50:00,
2013-08-02 08:55:00,70.0,67.2,29.97,SSE,158,1.0,5.0,91,0.00,,,0.00,WeatherCatV1.20B785,2013-08-02 13:55:00,
2013-08-02 09:00:00,70.0,67.2,29.97,SSE,158,1.0,5.0,91,0.00,,,0.00,WeatherCatV1.20B785,2013-08-02 14:00:00,
2013-08-02 09:05:00,70.0,67.2,29.97,SSE,158,1.0,5.0,91,0.00,,,0.00,WeatherCatV1.20B785,2013-08-02 14:05:00,
2013-08-02 09:10:00,70.0,67.2,29.97,SSE,158,1.0,5.0,91,0.00,,,0.00,WeatherCatV1.20B785,2013-08-02 14:10:00,
2013-08-02 09:15:00,70.3,66.9,29.98,South,180,1.0,4.0,89,0.00,,,0.00,WeatherCatV1.20B785,2013-08-02 14:15:00,
2013-08-02 09:20:00,70.3,66.9,29.98,South,180,1.0,4.0,89,0.00,,,0.00,WeatherCatV1.20B785,2013-08-02 14:20:00,
2013-08-02 09:25:00,70.3,66.9,29.98,South,180,1.0,4.0,89,0.00,,,0.00,WeatherCatV1.20B785,2013-08-02 14:25:00,
2013-08-02 09:30:00,70.3,66.9,29.98,South,180,1.0,4.0,89,0.00,,,0.00,WeatherCatV1.20B785,2013-08-02 14:30:00,
2013-08-02 09:35:00,70.3,66.9,29.98,South,180,1.0,4.0,89,0.00,,,0.00,WeatherCatV1.20B785,2013-08-02 14:35:00,
2013-08-02 09:40:00,70.8,67.4,29.98,SSE,158,1.0,5.0,89,0.00,,,0.00,WeatherCatV1.20B785,2013-08-02 14:40:00,
2013-08-02 09:45:00,70.8,67.4,29.98,SSE,158,1.0,5.0,89,0.00,,,0.00,WeatherCatV1.20B785,2013-08-02 14:45:00,
2013-08-02 09:50:00,70.8,67.4,29.98,SSE,158,1.0,5.0,89,0.00,,,0.00,WeatherCatV1.20B785,2013-08-02 14:50:00,
2013-08-02 09:55:00,70.8,67.4,29.98,SSE,158,1.0,5.0,89,0.00,,,0.00,WeatherCatV1.20B785,2013-08-02 14:55:00,
2013-08-02 10:00:00,70.8,67.4,29.98,SSE,158,1.0,5.0,89,0.00,,,0.00,WeatherCatV1.20B785,2013-08-02 15:00:00,
2013-08-02 10:05:00,70.8,67.4,29.98,SSE,158,1.0,5.0,89,0.00,,,0.00,WeatherCatV1.20B785,2013-08-02 15:05:00,
2013-08-02 10:10:00,71.0,67.6,29.98,SSE,158,2.0,7.0,89,0.00,,,0.00,WeatherCatV1.20B785,2013-08-02 15:10:00,
2013-08-02 10:15:00,71.0,67.6,29.98,SSE,158,2.0,7.0,89,0.00,,,0.00,WeatherCatV1.20B785,2013-08-02 15:15:00,
2013-08-02 10:20:00,71.0,67.6,29.98,SSE,158,2.0,7.0,89,0.00,,,0.00,WeatherCatV1.20B785,2013-08-02 15:20:00,
2013-08-02 10:25:00,71.0,67.6,29.98,SSE,158,2.0,7.0,89,0.00,,,0.00,WeatherCatV1.20B785,2013-08-02 15:25:00,
2013-08-02 10:30:00,71.0,67.6,29.98,SSE,158,2.0,7.0,89,0.00,,,0.00,WeatherCatV1.20B785,2013-08-02 15:30:00,
2013-08-02 10:35:00,71.0,67.6,29.98,SSE,158,2.0,7.0,89,0.00,,,0.00,WeatherCatV1.20B785,2013-08-02 15:35:00,
2013-08-02 10:40:00,72.1,68.0,29.97,SE,135,3.0,9.0,87,0.00,,,0.00,WeatherCatV1.20B785,2013-08-02 15:40:00,
2013-08-02 10:45:00,72.1,68.0,29.97,SE,135,3.0,9.0,87,0.00,,,0.00,WeatherCatV1.20B785,2013-08-02 15:45:00,
2013-08-02 10:50:00,72.1,68.0,29.97,SE,135,3.0,9.0,87,0.00,,,0.00,WeatherCatV1.20B785,2013-08-02 15:50:00,
2013-08-02 10:55:00,72.1,68.0,29.97,SE,135,3.0,9.0,87,0.00,,,0.00,WeatherCatV1.20B785,2013-08-02 15:55:00,
2013-08-02 11:00:00,72.1,68.0,29.97,SE,135,3.0,9.0,87,0.00,,,0.00,WeatherCatV1.20B785,2013-08-02 16:00:00,
2013-08-02 11:05:00,72.1,68.0,29.97,SE,135,3.0,9.0,87,0.00,,,0.00,WeatherCatV1.20B785,2013-08-02 16:05:00,
2013-08-02 11:10:00,73.0,68.2,29.96,SE,135,3.0,9.0,85,0.00,,,0.00,WeatherCatV1.20B785,2013-08-02 16:10:00,
2013-08-02 11:15:00,73.0,68.2,29.96,SE,135,3.0,9.0,85,0.00,,,0.00,WeatherCatV1.20B785,2013-08-02 16:15:00,
2013-08-02 11:20:00,73.0,68.2,29.96,SE,135,3.0,9.0,85,0.00,,,0.00,WeatherCatV1.20B785,2013-08-02 16:20:00,
2013-08-02 11:25:00,73.0,68.2,29.96,SE,135,3.0,9.0,85,0.00,,,0.00,WeatherCatV1.20B785,2013-08-02 16:25:00,
2013-08-02 11:30:00,73.0,68.2,29.96,SE,135,3.0,9.0,85,0.00,,,0.00,WeatherCatV1.20B785,2013-08-02 16:30:00,
2013-08-02 11:35:00,73.0,68.2,29.96,SE,135,3.0,9.0,85,0.00,,,0.00,WeatherCatV1.20B785,2013-08-02 16:35:00,
2013-08-02 11:40:00,73.8,68.7,29.95,SSE,158,3.0,12.0,84,0.00,,,0.00,WeatherCatV1.20B785,2013-08-02 16:40:00,
2013-08-02 11:45:00,73.8,68.7,29.95,SSE,158,3.0,12.0,84,0.00,,,0.00,WeatherCatV1.20B785,2013-08-02 16:45:00,
2013-08-02 11:50:00,73.8,68.7,29.95,SSE,158,3.0,12.0,84,0.00,,,0.00,WeatherCatV1.20B785,2013-08-02 16:50:00,
2013-08-02 11:55:00,73.8,68.7,29.95,SSE,158,3.0,12.0,84,0.00,,,0.00,WeatherCatV1.20B785,2013-08-02 16:55:00,
2013-08-02 12:00:00,73.8,68.7,29.95,SSE,158,3.0,12.0,84,0.00,,,0.00,WeatherCatV1.20B785,2013-08-02 17:00:00,
2013-08-02 12:05:00,73.8,68.7,29.95,SSE,158,3.0,12.0,84,0.00,,,0.00,WeatherCatV1.20B785,2013-08-02 17:05:00,
2013-08-02 12:10:00,74.7,68.8,29.94,South,180,3.0,10.0,82,0.00,,,0.00,WeatherCatV1.20B785,2013-08-02 17:10:00,
2013-08-02 12:15:00,74.7,68.8,29.94,South,180,3.0,10.0,82,0.00,,,0.00,WeatherCatV1.20B785,2013-08-02 17:15:00,
2013-08-02 12:20:00,74.7,68.8,29.94,South,180,3.0,10.0,82,0.00,,,0.00,WeatherCatV1.20B785,2013-08-02 17:20:00,
2013-08-02 12:25:00,74.7,68.8,29.94,South,180,3.0,10.0,82,0.00,,,0.00,WeatherCatV1.20B785,2013-08-02 17:25:00,
2013-08-02 12:30:00,74.7,68.8,29.94,South,180,3.0,10.0,82,0.00,,,0.00,WeatherCatV1.20B785,2013-08-02 17:30:00,
2013-08-02 12:35:00,74.7,68.8,29.94,South,180,3.0,10.0,82,0.00,,,0.00,WeatherCatV1.20B785,2013-08-02 17:35:00,
2013-08-02 12:40:00,74.7,68.8,29.94,South,180,3.0,10.0,82,0.00,,,0.00,WeatherCatV1.20B785,2013-08-02 17:40:00,
2013-08-02 12:45:00,77.9,69.7,29.94,South,180,5.0,14.0,76,0.00,,,0.00,WeatherCatV1.20B785,2013-08-02 17:45:00,
2013-08-02 12:50:00,77.9,69.7,29.94,South,180,5.0,14.0,76,0.00,,,0.00,WeatherCatV1.20B785,2013-08-02 17:50:00,
2013-08-02 12:55:00,77.9,69.7,29.94,South,180,5.0,14.0,76,0.00,,,0.00,WeatherCatV1.20B785,2013-08-02 17:55:00,
2013-08-02 13:00:00,77.9,69.7,29.94,South,180,5.0,14.0,76,0.00,,,0.00,WeatherCatV1.20B785,2013-08-02 18:00:00,
2013-08-02 13:05:00,77.9,69.7,29.94,South,180,5.0,14.0,76,0.00,,,0.00,WeatherCatV1.20B785,2013-08-02 18:05:00,
2013-08-02 13:10:00,77.9,69.7,29.94,South,180,5.0,14.0,76,0.00,,,0.00,WeatherCatV1.20B785,2013-08-02 18:10:00,
2013-08-02 13:15:00,78.6,70.8,29.92,South,180,4.0,13.0,77,0.00,,,0.00,WeatherCatV1.20B785,2013-08-02 18:15:00,
2013-08-02 13:20:00,78.6,70.8,29.92,South,180,4.0,13.0,77,0.00,,,0.00,WeatherCatV1.20B785,2013-08-02 18:20:00,
2013-08-02 13:25:00,78.6,70.8,29.92,South,180,4.0,13.0,77,0.00,,,0.00,WeatherCatV1.20B785,2013-08-02 18:25:00,
2013-08-02 13:30:00,78.6,70.8,29.92,South,180,4.0,13.0,77,0.00,,,0.00,WeatherCatV1.20B785,2013-08-02 18:30:00,
2013-08-02 13:35:00,78.6,70.8,29.92,South,180,4.0,13.0,77,0.00,,,0.00,WeatherCatV1.20B785,2013-08-02 18:35:00,
2013-08-02 13:40:00,80.0,72.1,29.92,South,180,4.0,11.0,77,0.00,,,0.00,WeatherCatV1.20B785,2013-08-02 18:40:00,
2013-08-02 13:45:00,80.0,72.1,29.92,South,180,4.0,11.0,77,0.00,,,0.00,WeatherCatV1.20B785,2013-08-02 18:45:00,
2013-08-02 13:50:00,80.0,72.1,29.92,South,180,4.0,11.0,77,0.00,,,0.00,WeatherCatV1.20B785,2013-08-02 18:50:00,
2013-08-02 13:55:00,80.0,72.1,29.92,South,180,4.0,11.0,77,0.00,,,0.00,WeatherCatV1.20B785,2013-08-02 18:55:00,
2013-08-02 14:00:00,80.0,72.1,29.92,South,180,4.0,11.0,77,0.00,,,0.00,WeatherCatV1.20B785,2013-08-02 19:00:00,
2013-08-02 14:05:00,80.0,72.1,29.92,South,180,4.0,11.0,77,0.00,,,0.00,WeatherCatV1.20B785,2013-08-02 19:05:00,
2013-08-02 14:10:00,80.5,72.6,29.91,SSE,158,4.0,12.0,77,0.00,,,0.00,WeatherCatV1.20B785,2013-08-02 19:10:00,
2013-08-02 14:15:00,80.5,72.6,29.91,SSE,158,4.0,12.0,77,0.00,,,0.00,WeatherCatV1.20B785,2013-08-02 19:15:00,
2013-08-02 14:20:00,80.5,72.6,29.91,SSE,158,4.0,12.0,77,0.00,,,0.00,WeatherCatV1.20B785,2013-08-02 19:20:00,
2013-08-02 14:25:00,80.5,72.6,29.91,SSE,158,4.0,12.0,77,0.00,,,0.00,WeatherCatV1.20B785,2013-08-02 19:25:00,
2013-08-02 14:30:00,80.5,72.6,29.91,SSE,158,4.0,12.0,77,0.00,,,0.00,WeatherCatV1.20B785,2013-08-02 19:30:00,
2013-08-02 14:35:00,80.5,72.6,29.91,SSE,158,4.0,12.0,77,0.00,,,0.00,WeatherCatV1.20B785,2013-08-02 19:35:00,
2013-08-02 14:40:00,81.5,73.6,29.91,SSE,158,4.0,11.0,77,0.00,,,0.00,WeatherCatV1.20B785,2013-08-02 19:40:00,
2013-08-02 14:45:00,81.5,73.6,29.91,SSE,158,4.0,11.0,77,0.00,,,0.00,WeatherCatV1.20B785,2013-08-02 19:45:00,
2013-08-02 14:50:00,81.5,73.6,29.91,SSE,158,4.0,11.0,77,0.00,,,0.00,WeatherCatV1.20B785,2013-08-02 19:50:00,
2013-08-02 14:55:00,81.5,73.6,29.91,SSE,158,4.0,11.0,77,0.00,,,0.00,WeatherCatV1.20B785,2013-08-02 19:55:00,
2013-08-02 15:00:00,81.5,73.6,29.91,SSE,158,4.0,11.0,77,0.00,,,0.00,WeatherCatV1.20B785,2013-08-02 20:00:00,
2013-08-02 15:05:00,81.5,73.6,29.91,SSE,158,4.0,11.0,77,0.00,,,0.00,WeatherCatV1.20B785,2013-08-02 20:05:00,
2013-08-02 15:10:00,84.0,74.8,29.90,South,180,3.0,12.0,74,0.00,,,0.00,WeatherCatV1.20B785,2013-08-02 20:10:00,
2013-08-02 15:15:00,84.0,74.8,29.90,South,180,3.0,12.0,74,0.00,,,0.00,WeatherCatV1.20B785,2013-08-02 20:15:00,
2013-08-02 15:20:00,84.0,74.8,29.90,South,180,3.0,12.0,74,0.00,,,0.00,WeatherCatV1.20B785,2013-08-02 20:20:00,
2013-08-02 15:25:00,84.0,74.8,29.90,South,180,3.0,12.0,74,0.00,,,0.00,WeatherCatV1.20B785,2013-08-02 20:25:00,
2013-08-02 15:30:00,84.0,74.8,29.90,South,180,3.0,12.0,74,0.00,,,0.00,WeatherCatV1.20B785,2013-08-02 20:30:00,
2013-08-02 15:35:00,84.0,74.8,29.90,South,180,3.0,12.0,74,0.00,,,0.00,WeatherCatV1.20B785,2013-08-02 20:35:00,
2013-08-02 15:40:00,84.5,75.7,29.88,SSE,158,4.0,11.0,75,0.00,,,0.00,WeatherCatV1.20B785,2013-08-02 20:40:00,
2013-08-02 15:45:00,84.5,75.7,29.88,SSE,158,4.0,11.0,75,0.00,,,0.00,WeatherCatV1.20B785,2013-08-02 20:45:00,
2013-08-02 15:50:00,84.5,75.7,29.88,SSE,158,4.0,11.0,75,0.00,,,0.00,WeatherCatV1.20B785,2013-08-02 20:50:00,
2013-08-02 15:55:00,84.5,75.7,29.88,SSE,158,4.0,11.0,75,0.00,,,0.00,WeatherCatV1.20B785,2013-08-02 20:55:00,
2013-08-02 16:00:00,84.5,75.7,29.88,SSE,158,4.0,11.0,75,0.00,,,0.00,WeatherCatV1.20B785,2013-08-02 21:00:00,
2013-08-02 16:05:00,84.5,75.7,29.88,SSE,158,4.0,11.0,75,0.00,,,0.00,WeatherCatV1.20B785,2013-08-02 21:05:00,
2013-08-02 16:10:00,85.1,76.7,29.88,SSE,158,4.0,11.0,76,0.00,,,0.00,WeatherCatV1.20B785,2013-08-02 21:10:00,
2013-08-02 16:15:00,85.1,76.7,29.88,SSE,158,4.0,11.0,76,0.00,,,0.00,WeatherCatV1.20B785,2013-08-02 21:15:00,
2013-08-02 16:20:00,85.1,76.7,29.88,SSE,158,4.0,11.0,76,0.00,,,0.00,WeatherCatV1.20B785,2013-08-02 21:20:00,
2013-08-02 16:25:00,85.1,76.7,29.88,SSE,158,4.0,11.0,76,0.00,,,0.00,WeatherCatV1.20B785,2013-08-02 21:25:00,
2013-08-02 16:30:00,85.1,76.7,29.88,SSE,158,4.0,11.0,76,0.00,,,0.00,WeatherCatV1.20B785,2013-08-02 21:30:00,
2013-08-02 16:35:00,85.1,76.7,29.88,SSE,158,4.0,11.0,76,0.00,,,0.00,WeatherCatV1.20B785,2013-08-02 21:35:00,
2013-08-02 16:40:00,85.0,76.6,29.87,South,180,3.0,9.0,76,0.00,,,0.00,WeatherCatV1.20B785,2013-08-02 21:40:00,
2013-08-02 16:45:00,85.0,76.6,29.87,South,180,3.0,9.0,76,0.00,,,0.00,WeatherCatV1.20B785,2013-08-02 21:45:00,
2013-08-02 16:50:00,85.0,76.6,29.87,South,180,3.0,9.0,76,0.00,,,0.00,WeatherCatV1.20B785,2013-08-02 21:50:00,
2013-08-02 16:55:00,85.0,76.6,29.87,South,180,3.0,9.0,76,0.00,,,0.00,WeatherCatV1.20B785,2013-08-02 21:55:00,
2013-08-02 17:00:00,85.0,76.6,29.87,South,180,3.0,9.0,76,0.00,,,0.00,WeatherCatV1.20B785,2013-08-02 22:00:00,
2013-08-02 17:05:00,85.0,76.6,29.87,South,180,3.0,9.0,76,0.00,,,0.00,WeatherCatV1.20B785,2013-08-02 22:05:00,
2013-08-02 17:10:00,84.9,77.2,29.86,South,180,2.0,8.0,78,0.00,,,0.00,WeatherCatV1.20B785,2013-08-02 22:10:00,
2013-08-02 17:15:00,84.9,77.2,29.86,South,180,2.0,8.0,78,0.00,,,0.00,WeatherCatV1.20B785,2013-08-02 22:15:00,
2013-08-02 17:20:00,84.9,77.2,29.86,South,180,2.0,8.0,78,0.00,,,0.00,WeatherCatV1.20B785,2013-08-02 22:20:00,
2013-08-02 17:25:00,84.9,77.2,29.86,South,180,2.0,8.0,78,0.00,,,0.00,WeatherCatV1.20B785,2013-08-02 22:25:00,
2013-08-02 17:30:00,84.9,77.2,29.86,South,180,2.0,8.0,78,0.00,,,0.00,WeatherCatV1.20B785,2013-08-02 22:30:00,
2013-08-02 17:35:00,84.9,77.2,29.86,South,180,2.0,8.0,78,0.00,,,0.00,WeatherCatV1.20B785,2013-08-02 22:35:00,
2013-08-02 17:40:00,86.1,76.8,29.86,SSE,158,4.0,10.0,74,0.00,,,0.00,WeatherCatV1.20B785,2013-08-02 22:40:00,
2013-08-02 17:45:00,86.1,76.8,29.86,SSE,158,4.0,10.0,74,0.00,,,0.00,WeatherCatV1.20B785,2013-08-02 22:45:00,
2013-08-02 17:50:00,86.1,76.8,29.86,SSE,158,4.0,10.0,74,0.00,,,0.00,WeatherCatV1.20B785,2013-08-02 22:50:00,
2013-08-02 17:55:00,86.1,76.8,29.86,SSE,158,4.0,10.0,74,0.00,,,0.00,WeatherCatV1.20B785,2013-08-02 22:55:00,
2013-08-02 18:00:00,86.1,76.8,29.86,SSE,158,4.0,10.0,74,0.00,,,0.00,WeatherCatV1.20B785,2013-08-02 23:00:00,
2013-08-02 18:05:00,86.1,76.8,29.86,SSE,158,4.0,10.0,74,0.00,,,0.00,WeatherCatV1.20B785,2013-08-02 23:05:00,
2013-08-02 18:10:00,86.0,77.1,29.85,South,180,2.0,9.0,75,0.00,,,0.00,WeatherCatV1.20B785,2013-08-02 23:10:00,
2013-08-02 18:15:00,86.0,77.1,29.85,South,180,2.0,9.0,75,0.00,,,0.00,WeatherCatV1.20B785,2013-08-02 23:15:00,
2013-08-02 18:20:00,86.0,77.1,29.85,South,180,2.0,9.0,75,0.00,,,0.00,WeatherCatV1.20B785,2013-08-02 23:20:00,
2013-08-02 18:25:00,86.0,77.1,29.85,South,180,2.0,9.0,75,0.00,,,0.00,WeatherCatV1.20B785,2013-08-02 23:25:00,
2013-08-02 18:30:00,86.0,77.1,29.85,South,180,2.0,9.0,75,0.00,,,0.00,WeatherCatV1.20B785,2013-08-02 23:30:00,
2013-08-02 18:35:00,86.0,77.1,29.85,South,180,2.0,9.0,75,0.00,,,0.00,WeatherCatV1.20B785,2013-08-02 23:35:00,
2013-08-02 18:40:00,85.4,77.3,29.86,South,180,2.0,8.0,77,0.00,,,0.00,WeatherCatV1.20B785,2013-08-02 23:40:00,
2013-08-02 18:45:00,85.4,77.3,29.86,South,180,2.0,8.0,77,0.00,,,0.00,WeatherCatV1.20B785,2013-08-02 23:45:00,
2013-08-02 18:50:00,85.4,77.3,29.86,South,180,2.0,8.0,77,0.00,,,0.00,WeatherCatV1.20B785,2013-08-02 23:50:00,
2013-08-02 18:55:00,85.4,77.3,29.86,South,180,2.0,8.0,77,0.00,,,0.00,WeatherCatV1.20B785,2013-08-02 23:55:00,
2013-08-02 19:00:00,85.4,77.3,29.86,South,180,2.0,8.0,77,0.00,,,0.00,WeatherCatV1.20B785,2013-08-03 00:00:00,
2013-08-02 19:05:00,85.4,77.3,29.86,South,180,2.0,8.0,77,0.00,,,0.00,WeatherCatV1.20B785,2013-08-03 00:05:00,
2013-08-02 19:10:00,84.2,76.6,29.87,South,180,1.0,6.0,78,0.00,,,0.00,WeatherCatV1.20B785,2013-08-03 00:10:00,
2013-08-02 19:15:00,84.2,76.6,29.87,South,180,1.0,6.0,78,0.00,,,0.00,WeatherCatV1.20B785,2013-08-03 00:15:00,
2013-08-02 19:20:00,84.2,76.6,29.87,South,180,1.0,6.0,78,0.00,,,0.00,WeatherCatV1.20B785,2013-08-03 00:20:00,
2013-08-02 19:25:00,84.2,76.6,29.87,South,180,1.0,6.0,78,0.00,,,0.00,WeatherCatV1.20B785,2013-08-03 00:25:00,
2013-08-02 19:30:00,84.2,76.6,29.87,South,180,1.0,6.0,78,0.00,,,0.00,WeatherCatV1.20B785,2013-08-03 00:30:00,
2013-08-02 19:35:00,84.2,76.6,29.87,South,180,1.0,6.0,78,0.00,,,0.00,WeatherCatV1.20B785,2013-08-03 00:35:00,
2013-08-02 19:40:00,82.7,75.9,29.88,SSW,202,2.0,8.0,80,0.00,,,0.00,WeatherCatV1.20B785,2013-08-03 00:40:00,
2013-08-02 19:45:00,82.7,75.9,29.88,SSW,202,2.0,8.0,80,0.00,,,0.00,WeatherCatV1.20B785,2013-08-03 00:45:00,
2013-08-02 19:50:00,82.7,75.9,29.88,SSW,202,2.0,8.0,80,0.00,,,0.00,WeatherCatV1.20B785,2013-08-03 00:50:00,
2013-08-02 19:55:00,82.7,75.9,29.88,SSW,202,2.0,8.0,80,0.00,,,0.00,WeatherCatV1.20B785,2013-08-03 00:55:00,
2013-08-02 20:00:00,82.7,75.9,29.88,SSW,202,2.0,8.0,80,0.00,,,0.00,WeatherCatV1.20B785,2013-08-03 01:00:00,
2013-08-02 20:05:00,82.7,75.9,29.88,SSW,202,2.0,8.0,80,0.00,,,0.00,WeatherCatV1.20B785,2013-08-03 01:05:00,
2013-08-02 20:10:00,81.6,75.6,29.88,South,180,1.0,5.0,82,0.00,,,0.00,WeatherCatV1.20B785,2013-08-03 01:10:00,
2013-08-02 20:15:00,81.6,75.6,29.88,South,180,1.0,5.0,82,0.00,,,0.00,WeatherCatV1.20B785,2013-08-03 01:15:00,
2013-08-02 20:20:00,81.6,75.6,29.88,South,180,1.0,5.0,82,0.00,,,0.00,WeatherCatV1.20B785,2013-08-03 01:20:00,
2013-08-02 20:25:00,81.6,75.6,29.88,South,180,1.0,5.0,82,0.00,,,0.00,WeatherCatV1.20B785,2013-08-03 01:25:00,
2013-08-02 20:30:00,81.6,75.6,29.88,South,180,1.0,5.0,82,0.00,,,0.00,WeatherCatV1.20B785,2013-08-03 01:30:00,
2013-08-02 20:35:00,81.6,75.6,29.88,South,180,1.0,5.0,82,0.00,,,0.00,WeatherCatV1.20B785,2013-08-03 01:35:00,
2013-08-02 20:40:00,80.6,74.9,29.88,SSE,158,1.0,6.0,83,0.00,,,0.00,WeatherCatV1.20B785,2013-08-03 01:40:00,
2013-08-02 20:45:00,80.6,74.9,29.88,SSE,158,1.0,6.0,83,0.00,,,0.00,WeatherCatV1.20B785,2013-08-03 01:45:00,
2013-08-02 20:50:00,80.6,74.9,29.88,SSE,158,1.0,6.0,83,0.00,,,0.00,WeatherCatV1.20B785,2013-08-03 01:50:00,
2013-08-02 20:55:00,80.6,74.9,29.88,SSE,158,1.0,6.0,83,0.00,,,0.00,WeatherCatV1.20B785,2013-08-03 01:55:00,
2013-08-02 21:00:00,80.6,74.9,29.88,SSE,158,1.0,6.0,83,0.00,,,0.00,WeatherCatV1.20B785,2013-08-03 02:00:00,
2013-08-02 21:05:00,80.6,74.9,29.88,SSE,158,1.0,6.0,83,0.00,,,0.00,WeatherCatV1.20B785,2013-08-03 02:05:00,
2013-08-02 21:10:00,79.7,74.8,29.89,South,180,1.0,4.0,85,0.00,,,0.00,WeatherCatV1.20B785,2013-08-03 02:10:00,
2013-08-02 21:15:00,79.7,74.8,29.89,South,180,1.0,4.0,85,0.00,,,0.00,WeatherCatV1.20B785,2013-08-03 02:15:00,
2013-08-02 21:20:00,79.7,74.8,29.89,South,180,1.0,4.0,85,0.00,,,0.00,WeatherCatV1.20B785,2013-08-03 02:20:00,
2013-08-02 21:25:00,79.7,74.8,29.89,South,180,1.0,4.0,85,0.00,,,0.00,WeatherCatV1.20B785,2013-08-03 02:25:00,
2013-08-02 21:30:00,79.7,74.8,29.89,South,180,1.0,4.0,85,0.00,,,0.00,WeatherCatV1.20B785,2013-08-03 02:30:00,
2013-08-02 21:35:00,79.7,74.8,29.89,South,180,1.0,4.0,85,0.00,,,0.00,WeatherCatV1.20B785,2013-08-03 02:35:00,
2013-08-02 21:40:00,78.7,74.5,29.89,South,180,0.0,3.0,87,0.00,,,0.00,WeatherCatV1.20B785,2013-08-03 02:40:00,
2013-08-02 21:45:00,78.7,74.5,29.89,South,180,0.0,3.0,87,0.00,,,0.00,WeatherCatV1.20B785,2013-08-03 02:45:00,
2013-08-02 21:50:00,78.7,74.5,29.89,South,180,0.0,3.0,87,0.00,,,0.00,WeatherCatV1.20B785,2013-08-03 02:50:00,
2013-08-02 21:55:00,78.7,74.5,29.89,South,180,0.0,3.0,87,0.00,,,0.00,WeatherCatV1.20B785,2013-08-03 02:55:00,
2013-08-02 22:00:00,78.7,74.5,29.89,South,180,0.0,3.0,87,0.00,,,0.00,WeatherCatV1.20B785,2013-08-03 03:00:00,
2013-08-02 22:05:00,78.7,74.5,29.89,South,180,0.0,3.0,87,0.00,,,0.00,WeatherCatV1.20B785,2013-08-03 03:05:00,
2013-08-02 22:10:00,77.4,73.9,29.90,South,180,0.0,2.0,89,0.00,,,0.00,WeatherCatV1.20B785,2013-08-03 03:10:00,
2013-08-02 22:15:00,77.4,73.9,29.90,South,180,0.0,2.0,89,0.00,,,0.00,WeatherCatV1.20B785,2013-08-03 03:15:00,
2013-08-02 22:20:00,77.4,73.9,29.90,South,180,0.0,2.0,89,0.00,,,0.00,WeatherCatV1.20B785,2013-08-03 03:20:00,
2013-08-02 22:25:00,77.4,73.9,29.90,South,180,0.0,2.0,89,0.00,,,0.00,WeatherCatV1.20B785,2013-08-03 03:25:00,
2013-08-02 22:30:00,77.4,73.9,29.90,South,180,0.0,2.0,89,0.00,,,0.00,WeatherCatV1.20B785,2013-08-03 03:30:00,
2013-08-02 22:35:00,77.4,73.9,29.90,South,180,0.0,2.0,89,0.00,,,0.00,WeatherCatV1.20B785,2013-08-03 03:35:00,
2013-08-02 22:40:00,76.7,73.9,29.90,SSE,158,0.0,2.0,91,0.00,,,0.00,WeatherCatV1.20B785,2013-08-03 03:40:00,
2013-08-02 22:45:00,76.7,73.9,29.90,SSE,158,0.0,2.0,91,0.00,,,0.00,WeatherCatV1.20B785,2013-08-03 03:45:00,
2013-08-02 22:50:00,76.7,73.9,29.90,SSE,158,0.0,2.0,91,0.00,,,0.00,WeatherCatV1.20B785,2013-08-03 03:50:00,
2013-08-02 22:55:00,76.7,73.9,29.90,SSE,158,0.0,2.0,91,0.00,,,0.00,WeatherCatV1.20B785,2013-08-03 03:55:00,
2013-08-02 23:00:00,76.7,73.9,29.90,SSE,158,0.0,2.0,91,0.00,,,0.00,WeatherCatV1.20B785,2013-08-03 04:00:00,
2013-08-02 23:05:00,76.7,73.9,29.90,SSE,158,0.0,2.0,91,0.00,,,0.00,WeatherCatV1.20B785,2013-08-03 04:05:00,
2013-08-02 23:10:00,76.1,73.6,29.90,SSE,158,0.0,3.0,92,0.00,,,0.00,WeatherCatV1.20B785,2013-08-03 04:10:00,
2013-08-02 23:15:00,76.1,73.6,29.90,SSE,158,0.0,3.0,92,0.00,,,0.00,WeatherCatV1.20B785,2013-08-03 04:15:00,
2013-08-02 23:20:00,76.1,73.6,29.90,SSE,158,0.0,3.0,92,0.00,,,0.00,WeatherCatV1.20B785,2013-08-03 04:20:00,
2013-08-02 23:25:00,76.1,73.6,29.90,SSE,158,0.0,3.0,92,0.00,,,0.00,WeatherCatV1.20B785,2013-08-03 04:25:00,
2013-08-02 23:30:00,76.1,73.6,29.90,SSE,158,0.0,3.0,92,0.00,,,0.00,WeatherCatV1.20B785,2013-08-03 04:30:00,
2013-08-02 23:35:00,76.1,73.6,29.90,SSE,158,0.0,3.0,92,0.00,,,0.00,WeatherCatV1.20B785,2013-08-03 04:35:00,
2013-08-02 23:40:00,75.9,73.7,29.90,SSE,158,0.0,4.0,93,0.00,,,0.00,WeatherCatV1.20B785,2013-08-03 04:40:00,
2013-08-02 23:45:00,75.9,73.7,29.90,SSE,158,0.0,4.0,93,0.00,,,0.00,WeatherCatV1.20B785,2013-08-03 04:45:00,
2013-08-02 23:50:00,75.9,73.7,29.90,SSE,158,0.0,4.0,93,0.00,,,0.00,WeatherCatV1.20B785,2013-08-03 04:50:00,
2013-08-02 23:55:00,75.9,73.7,29.90,SSE,158,0.0,4.0,93,0.00,,,0.00,WeatherCatV1.20B785,2013-08-03 04:55:00,